sensor_id;sensor_type;location;lat;lon;timestamp;P1;durP1;ratioP1;P2;durP2;ratioP2
70663;SDS011;58237;57.996;56.290;2024-01-30T00:00:58;26.95;;;8.65;;
70663;SDS011;58237;57.996;56.290;2024-01-30T00:03:24;28.80;;;9.07;;
70663;SDS011;58237;57.996;56.290;2024-01-30T00:05:50;17.65;;;7.18;;
70663;SDS011;58237;57.996;56.290;2024-01-30T00:08:15;17.77;;;5.47;;
70663;SDS011;58237;57.996;56.290;2024-01-30T00:10:41;28.73;;;9.85;;
70663;SDS011;58237;57.996;56.290;2024-01-30T00:13:06;19.80;;;7.45;;
70663;SDS011;58237;57.996;56.290;2024-01-30T00:15:32;17.60;;;6.18;;
70663;SDS011;58237;57.996;56.290;2024-01-30T00:17:57;16.83;;;5.35;;
70663;SDS011;58237;57.996;56.290;2024-01-30T00:20:23;22.50;;;7.38;;
70663;SDS011;58237;57.996;56.290;2024-01-30T00:22:49;15.13;;;6.15;;
70663;SDS011;58237;57.996;56.290;2024-01-30T00:25:14;18.35;;;6.97;;
70663;SDS011;58237;57.996;56.290;2024-01-30T00:27:40;18.70;;;7.40;;
70663;SDS011;58237;57.996;56.290;2024-01-30T00:30:05;18.98;;;5.88;;
70663;SDS011;58237;57.996;56.290;2024-01-30T00:32:32;15.55;;;5.97;;
70663;SDS011;58237;57.996;56.290;2024-01-30T00:34:57;19.92;;;7.10;;
70663;SDS011;58237;57.996;56.290;2024-01-30T00:37:23;20.90;;;8.00;;
70663;SDS011;58237;57.996;56.290;2024-01-30T00:39:48;22.80;;;8.55;;
70663;SDS011;58237;57.996;56.290;2024-01-30T00:42:16;17.02;;;6.07;;
70663;SDS011;58237;57.996;56.290;2024-01-30T00:44:42;21.45;;;8.18;;
70663;SDS011;58237;57.996;56.290;2024-01-30T00:47:07;17.88;;;6.20;;
70663;SDS011;58237;57.996;56.290;2024-01-30T00:49:33;19.27;;;6.50;;
70663;SDS011;58237;57.996;56.290;2024-01-30T00:51:58;19.27;;;8.27;;
70663;SDS011;58237;57.996;56.290;2024-01-30T00:54:24;20.52;;;6.50;;
70663;SDS011;58237;57.996;56.290;2024-01-30T00:56:49;19.35;;;6.03;;
70663;SDS011;58237;57.996;56.290;2024-01-30T00:59:15;17.77;;;7.35;;
70663;SDS011;58237;57.996;56.290;2024-01-30T01:01:40;17.65;;;6.70;;
70663;SDS011;58237;57.996;56.290;2024-01-30T01:04:06;22.17;;;8.18;;
70663;SDS011;58237;57.996;56.290;2024-01-30T01:06:32;22.23;;;9.18;;
70663;SDS011;58237;57.996;56.290;2024-01-30T01:08:58;20.02;;;6.85;;
70663;SDS011;58237;57.996;56.290;2024-01-30T01:11:23;22.10;;;8.57;;
70663;SDS011;58237;57.996;56.290;2024-01-30T01:13:49;16.40;;;6.43;;
70663;SDS011;58237;57.996;56.290;2024-01-30T01:16:14;18.73;;;7.20;;
70663;SDS011;58237;57.996;56.290;2024-01-30T01:18:40;23.50;;;9.48;;
70663;SDS011;58237;57.996;56.290;2024-01-30T01:21:05;23.20;;;8.32;;
70663;SDS011;58237;57.996;56.290;2024-01-30T01:23:31;19.98;;;6.30;;
70663;SDS011;58237;57.996;56.290;2024-01-30T01:25:56;21.80;;;7.53;;
70663;SDS011;58237;57.996;56.290;2024-01-30T01:28:24;18.73;;;6.93;;
70663;SDS011;58237;57.996;56.290;2024-01-30T01:30:50;27.52;;;9.00;;
70663;SDS011;58237;57.996;56.290;2024-01-30T01:33:16;28.02;;;11.13;;
70663;SDS011;58237;57.996;56.290;2024-01-30T01:35:42;25.50;;;8.73;;
70663;SDS011;58237;57.996;56.290;2024-01-30T01:38:08;22.85;;;6.93;;
70663;SDS011;58237;57.996;56.290;2024-01-30T01:40:33;29.52;;;10.43;;
70663;SDS011;58237;57.996;56.290;2024-01-30T01:43:02;30.15;;;11.82;;
70663;SDS011;58237;57.996;56.290;2024-01-30T01:45:28;27.33;;;9.85;;
70663;SDS011;58237;57.996;56.290;2024-01-30T01:47:53;21.20;;;7.95;;
70663;SDS011;58237;57.996;56.290;2024-01-30T01:50:20;21.70;;;8.98;;
70663;SDS011;58237;57.996;56.290;2024-01-30T01:52:47;18.40;;;6.80;;
70663;SDS011;58237;57.996;56.290;2024-01-30T01:55:12;21.63;;;8.18;;
70663;SDS011;58237;57.996;56.290;2024-01-30T01:57:38;19.20;;;7.43;;
70663;SDS011;58237;57.996;56.290;2024-01-30T02:00:04;24.63;;;8.80;;
70663;SDS011;58237;57.996;56.290;2024-01-30T02:02:30;19.20;;;6.70;;
70663;SDS011;58237;57.996;56.290;2024-01-30T02:04:59;25.70;;;9.70;;
70663;SDS011;58237;57.996;56.290;2024-01-30T02:07:24;23.25;;;9.68;;
70663;SDS011;58237;57.996;56.290;2024-01-30T02:09:50;27.55;;;9.95;;
70663;SDS011;58237;57.996;56.290;2024-01-30T02:12:15;23.58;;;7.97;;
70663;SDS011;58237;57.996;56.290;2024-01-30T02:14:47;22.10;;;7.97;;
70663;SDS011;58237;57.996;56.290;2024-01-30T02:17:13;33.55;;;10.60;;
70663;SDS011;58237;57.996;56.290;2024-01-30T02:19:39;25.10;;;10.40;;
70663;SDS011;58237;57.996;56.290;2024-01-30T02:22:04;36.22;;;11.90;;
70663;SDS011;58237;57.996;56.290;2024-01-30T02:24:30;27.90;;;8.82;;
70663;SDS011;58237;57.996;56.290;2024-01-30T02:26:56;31.92;;;9.10;;
70663;SDS011;58237;57.996;56.290;2024-01-30T02:29:21;28.75;;;8.95;;
70663;SDS011;58237;57.996;56.290;2024-01-30T02:31:47;26.23;;;8.68;;
70663;SDS011;58237;57.996;56.290;2024-01-30T02:34:13;31.33;;;11.18;;
70663;SDS011;58237;57.996;56.290;2024-01-30T02:36:38;31.02;;;9.57;;
70663;SDS011;58237;57.996;56.290;2024-01-30T02:39:07;24.15;;;7.88;;
70663;SDS011;58237;57.996;56.290;2024-01-30T02:41:33;28.40;;;7.78;;
70663;SDS011;58237;57.996;56.290;2024-01-30T02:43:58;28.95;;;9.32;;
70663;SDS011;58237;57.996;56.290;2024-01-30T02:46:24;22.92;;;8.27;;
70663;SDS011;58237;57.996;56.290;2024-01-30T02:48:49;49.30;;;14.45;;
70663;SDS011;58237;57.996;56.290;2024-01-30T02:51:15;24.15;;;8.25;;
70663;SDS011;58237;57.996;56.290;2024-01-30T02:53:40;29.20;;;10.63;;
70663;SDS011;58237;57.996;56.290;2024-01-30T02:56:06;25.05;;;9.35;;
70663;SDS011;58237;57.996;56.290;2024-01-30T02:58:35;27.83;;;9.68;;
70663;SDS011;58237;57.996;56.290;2024-01-30T03:01:00;25.45;;;9.95;;
70663;SDS011;58237;57.996;56.290;2024-01-30T03:03:26;24.85;;;9.20;;
70663;SDS011;58237;57.996;56.290;2024-01-30T03:05:51;25.30;;;9.13;;
70663;SDS011;58237;57.996;56.290;2024-01-30T03:08:17;35.25;;;13.38;;
70663;SDS011;58237;57.996;56.290;2024-01-30T03:10:42;25.70;;;8.15;;
70663;SDS011;58237;57.996;56.290;2024-01-30T03:13:08;23.75;;;9.10;;
70663;SDS011;58237;57.996;56.290;2024-01-30T03:15:33;25.38;;;9.15;;
70663;SDS011;58237;57.996;56.290;2024-01-30T03:17:59;35.40;;;12.27;;
70663;SDS011;58237;57.996;56.290;2024-01-30T03:20:24;25.35;;;11.48;;
70663;SDS011;58237;57.996;56.290;2024-01-30T03:22:50;24.33;;;9.52;;
70663;SDS011;58237;57.996;56.290;2024-01-30T03:25:15;21.92;;;7.57;;
70663;SDS011;58237;57.996;56.290;2024-01-30T03:27:41;32.70;;;11.93;;
70663;SDS011;58237;57.996;56.290;2024-01-30T03:30:07;28.50;;;10.55;;
70663;SDS011;58237;57.996;56.290;2024-01-30T03:32:32;36.28;;;12.35;;
70663;SDS011;58237;57.996;56.290;2024-01-30T03:34:58;30.98;;;9.52;;
70663;SDS011;58237;57.996;56.290;2024-01-30T03:37:24;26.88;;;10.63;;
70663;SDS011;58237;57.996;56.290;2024-01-30T03:39:49;28.08;;;11.63;;
70663;SDS011;58237;57.996;56.290;2024-01-30T03:42:15;35.35;;;13.43;;
70663;SDS011;58237;57.996;56.290;2024-01-30T03:44:41;32.00;;;10.05;;
70663;SDS011;58237;57.996;56.290;2024-01-30T03:47:06;30.77;;;12.40;;
70663;SDS011;58237;57.996;56.290;2024-01-30T03:49:32;26.08;;;11.15;;
70663;SDS011;58237;57.996;56.290;2024-01-30T03:51:57;35.40;;;12.70;;
70663;SDS011;58237;57.996;56.290;2024-01-30T03:54:23;38.08;;;11.90;;
70663;SDS011;58237;57.996;56.290;2024-01-30T03:56:48;30.75;;;12.50;;
70663;SDS011;58237;57.996;56.290;2024-01-30T03:59:14;51.17;;;18.10;;
70663;SDS011;58237;57.996;56.290;2024-01-30T04:01:51;30.73;;;11.60;;
70663;SDS011;58237;57.996;56.290;2024-01-30T04:04:20;30.73;;;12.48;;
70663;SDS011;58237;57.996;56.290;2024-01-30T04:07:28;39.03;;;13.05;;
70663;SDS011;58237;57.996;56.290;2024-01-30T04:09:40;28.92;;;10.85;;
70663;SDS011;58237;57.996;56.290;2024-01-30T04:12:06;40.03;;;14.73;;
70663;SDS011;58237;57.996;56.290;2024-01-30T04:14:31;36.15;;;14.20;;
70663;SDS011;58237;57.996;56.290;2024-01-30T04:16:57;48.50;;;14.27;;
70663;SDS011;58237;57.996;56.290;2024-01-30T04:19:22;37.22;;;12.07;;
70663;SDS011;58237;57.996;56.290;2024-01-30T04:21:48;36.97;;;11.13;;
70663;SDS011;58237;57.996;56.290;2024-01-30T04:24:13;33.30;;;12.05;;
70663;SDS011;58237;57.996;56.290;2024-01-30T04:26:39;37.88;;;11.90;;
70663;SDS011;58237;57.996;56.290;2024-01-30T04:29:04;40.35;;;15.25;;
70663;SDS011;58237;57.996;56.290;2024-01-30T04:31:30;34.25;;;12.50;;
70663;SDS011;58237;57.996;56.290;2024-01-30T04:33:55;42.20;;;14.70;;
70663;SDS011;58237;57.996;56.290;2024-01-30T04:36:21;34.13;;;13.35;;
70663;SDS011;58237;57.996;56.290;2024-01-30T04:38:46;38.35;;;13.05;;
70663;SDS011;58237;57.996;56.290;2024-01-30T04:41:12;33.83;;;11.75;;
70663;SDS011;58237;57.996;56.290;2024-01-30T04:43:37;41.88;;;14.77;;
70663;SDS011;58237;57.996;56.290;2024-01-30T04:46:03;33.80;;;12.77;;
70663;SDS011;58237;57.996;56.290;2024-01-30T04:48:29;34.78;;;13.80;;
70663;SDS011;58237;57.996;56.290;2024-01-30T04:50:55;47.20;;;18.52;;
70663;SDS011;58237;57.996;56.290;2024-01-30T04:53:21;31.42;;;11.93;;
70663;SDS011;58237;57.996;56.290;2024-01-30T04:55:46;39.47;;;13.38;;
70663;SDS011;58237;57.996;56.290;2024-01-30T04:58:12;36.15;;;14.80;;
70663;SDS011;58237;57.996;56.290;2024-01-30T05:00:37;44.95;;;16.55;;
70663;SDS011;58237;57.996;56.290;2024-01-30T05:03:03;36.00;;;12.40;;
70663;SDS011;58237;57.996;56.290;2024-01-30T05:05:29;34.03;;;12.57;;
70663;SDS011;58237;57.996;56.290;2024-01-30T05:07:54;37.05;;;14.30;;
70663;SDS011;58237;57.996;56.290;2024-01-30T05:10:20;44.58;;;15.70;;
70663;SDS011;58237;57.996;56.290;2024-01-30T05:12:46;46.03;;;14.68;;
70663;SDS011;58237;57.996;56.290;2024-01-30T05:15:11;44.65;;;13.75;;
70663;SDS011;58237;57.996;56.290;2024-01-30T05:17:37;31.55;;;10.80;;
70663;SDS011;58237;57.996;56.290;2024-01-30T05:20:02;32.50;;;12.13;;
70663;SDS011;58237;57.996;56.290;2024-01-30T05:22:29;47.22;;;14.98;;
70663;SDS011;58237;57.996;56.290;2024-01-30T05:24:54;37.50;;;14.23;;
70663;SDS011;58237;57.996;56.290;2024-01-30T05:27:20;39.35;;;15.00;;
70663;SDS011;58237;57.996;56.290;2024-01-30T05:29:45;39.33;;;15.82;;
70663;SDS011;58237;57.996;56.290;2024-01-30T05:32:11;46.33;;;16.13;;
70663;SDS011;58237;57.996;56.290;2024-01-30T05:34:36;41.20;;;15.20;;
70663;SDS011;58237;57.996;56.290;2024-01-30T05:37:02;46.42;;;16.65;;
70663;SDS011;58237;57.996;56.290;2024-01-30T05:39:28;34.72;;;12.40;;
70663;SDS011;58237;57.996;56.290;2024-01-30T05:41:53;38.60;;;15.38;;
70663;SDS011;58237;57.996;56.290;2024-01-30T05:44:19;47.10;;;16.52;;
70663;SDS011;58237;57.996;56.290;2024-01-30T05:46:44;38.97;;;12.30;;
70663;SDS011;58237;57.996;56.290;2024-01-30T05:49:10;36.83;;;12.82;;
70663;SDS011;58237;57.996;56.290;2024-01-30T05:51:35;54.25;;;19.73;;
70663;SDS011;58237;57.996;56.290;2024-01-30T05:54:01;44.47;;;16.52;;
70663;SDS011;58237;57.996;56.290;2024-01-30T05:56:28;41.38;;;14.98;;
70663;SDS011;58237;57.996;56.290;2024-01-30T05:58:54;36.78;;;13.95;;
70663;SDS011;58237;57.996;56.290;2024-01-30T06:01:20;35.65;;;14.32;;
70663;SDS011;58237;57.996;56.290;2024-01-30T06:03:45;34.42;;;12.40;;
70663;SDS011;58237;57.996;56.290;2024-01-30T06:06:11;32.35;;;12.48;;
70663;SDS011;58237;57.996;56.290;2024-01-30T06:08:36;35.67;;;12.65;;
70663;SDS011;58237;57.996;56.290;2024-01-30T06:11:02;34.83;;;11.90;;
70663;SDS011;58237;57.996;56.290;2024-01-30T06:13:27;31.73;;;12.75;;
70663;SDS011;58237;57.996;56.290;2024-01-30T06:15:56;46.28;;;15.50;;
70663;SDS011;58237;57.996;56.290;2024-01-30T06:18:21;41.80;;;15.25;;
70663;SDS011;58237;57.996;56.290;2024-01-30T06:20:47;33.42;;;12.27;;
70663;SDS011;58237;57.996;56.290;2024-01-30T06:23:12;36.60;;;12.73;;
70663;SDS011;58237;57.996;56.290;2024-01-30T06:25:38;42.00;;;15.40;;
70663;SDS011;58237;57.996;56.290;2024-01-30T06:28:03;46.90;;;18.02;;
70663;SDS011;58237;57.996;56.290;2024-01-30T06:30:29;34.92;;;12.38;;
70663;SDS011;58237;57.996;56.290;2024-01-30T06:32:54;33.00;;;11.52;;
70663;SDS011;58237;57.996;56.290;2024-01-30T06:35:20;32.10;;;12.20;;
70663;SDS011;58237;57.996;56.290;2024-01-30T06:37:46;37.55;;;11.75;;
70663;SDS011;58237;57.996;56.290;2024-01-30T06:40:12;32.38;;;12.98;;
70663;SDS011;58237;57.996;56.290;2024-01-30T06:42:38;35.45;;;12.43;;
70663;SDS011;58237;57.996;56.290;2024-01-30T06:45:03;38.22;;;15.15;;
70663;SDS011;58237;57.996;56.290;2024-01-30T06:47:29;38.05;;;12.77;;
70663;SDS011;58237;57.996;56.290;2024-01-30T06:49:56;44.85;;;13.88;;
70663;SDS011;58237;57.996;56.290;2024-01-30T06:52:21;32.47;;;12.35;;
70663;SDS011;58237;57.996;56.290;2024-01-30T06:54:47;33.22;;;11.93;;
70663;SDS011;58237;57.996;56.290;2024-01-30T06:57:12;33.92;;;12.80;;
70663;SDS011;58237;57.996;56.290;2024-01-30T06:59:39;37.88;;;11.50;;
70663;SDS011;58237;57.996;56.290;2024-01-30T07:02:09;25.98;;;10.57;;
70663;SDS011;58237;57.996;56.290;2024-01-30T07:04:35;32.47;;;10.77;;
70663;SDS011;58237;57.996;56.290;2024-01-30T07:07:02;22.95;;;8.88;;
70663;SDS011;58237;57.996;56.290;2024-01-30T07:09:28;46.78;;;15.52;;
70663;SDS011;58237;57.996;56.290;2024-01-30T07:11:54;38.30;;;13.23;;
70663;SDS011;58237;57.996;56.290;2024-01-30T07:14:20;37.70;;;14.73;;
70663;SDS011;58237;57.996;56.290;2024-01-30T07:16:46;36.00;;;11.48;;
70663;SDS011;58237;57.996;56.290;2024-01-30T07:19:11;25.17;;;9.27;;
70663;SDS011;58237;57.996;56.290;2024-01-30T07:21:37;24.98;;;9.43;;
70663;SDS011;58237;57.996;56.290;2024-01-30T07:24:03;28.80;;;8.98;;
70663;SDS011;58237;57.996;56.290;2024-01-30T07:26:29;29.25;;;10.48;;
70663;SDS011;58237;57.996;56.290;2024-01-30T07:28:54;31.52;;;12.18;;
70663;SDS011;58237;57.996;56.290;2024-01-30T07:31:20;40.05;;;13.70;;
70663;SDS011;58237;57.996;56.290;2024-01-30T07:33:48;33.00;;;11.93;;
70663;SDS011;58237;57.996;56.290;2024-01-30T07:36:13;34.45;;;11.35;;
70663;SDS011;58237;57.996;56.290;2024-01-30T07:38:39;33.15;;;12.20;;
70663;SDS011;58237;57.996;56.290;2024-01-30T07:41:05;26.45;;;9.93;;
70663;SDS011;58237;57.996;56.290;2024-01-30T07:43:31;24.42;;;9.23;;
70663;SDS011;58237;57.996;56.290;2024-01-30T07:45:56;24.95;;;9.45;;
70663;SDS011;58237;57.996;56.290;2024-01-30T07:48:22;25.55;;;11.30;;
70663;SDS011;58237;57.996;56.290;2024-01-30T07:50:47;23.75;;;8.90;;
70663;SDS011;58237;57.996;56.290;2024-01-30T07:53:13;28.58;;;8.10;;
70663;SDS011;58237;57.996;56.290;2024-01-30T07:55:38;21.35;;;7.65;;
70663;SDS011;58237;57.996;56.290;2024-01-30T07:58:04;27.15;;;9.93;;
70663;SDS011;58237;57.996;56.290;2024-01-30T08:00:29;29.73;;;9.20;;
70663;SDS011;58237;57.996;56.290;2024-01-30T08:02:55;24.02;;;9.88;;
70663;SDS011;58237;57.996;56.290;2024-01-30T08:05:21;28.73;;;9.20;;
70663;SDS011;58237;57.996;56.290;2024-01-30T08:07:50;25.88;;;10.45;;
70663;SDS011;58237;57.996;56.290;2024-01-30T08:10:15;26.75;;;9.82;;
70663;SDS011;58237;57.996;56.290;2024-01-30T08:12:44;24.00;;;8.98;;
70663;SDS011;58237;57.996;56.290;2024-01-30T08:15:09;31.40;;;10.93;;
70663;SDS011;58237;57.996;56.290;2024-01-30T08:17:35;21.88;;;8.32;;
70663;SDS011;58237;57.996;56.290;2024-01-30T08:20:01;24.42;;;10.20;;
70663;SDS011;58237;57.996;56.290;2024-01-30T08:22:26;25.35;;;9.63;;
70663;SDS011;58237;57.996;56.290;2024-01-30T08:24:52;28.55;;;9.63;;
70663;SDS011;58237;57.996;56.290;2024-01-30T08:27:17;22.05;;;8.27;;
70663;SDS011;58237;57.996;56.290;2024-01-30T08:29:43;22.50;;;7.53;;
70663;SDS011;58237;57.996;56.290;2024-01-30T08:32:08;30.20;;;9.95;;
70663;SDS011;58237;57.996;56.290;2024-01-30T08:34:34;26.80;;;9.68;;
70663;SDS011;58237;57.996;56.290;2024-01-30T08:36:59;23.75;;;9.20;;
70663;SDS011;58237;57.996;56.290;2024-01-30T08:39:25;28.38;;;9.40;;
70663;SDS011;58237;57.996;56.290;2024-01-30T08:41:51;32.00;;;11.45;;
70663;SDS011;58237;57.996;56.290;2024-01-30T08:44:17;32.08;;;11.80;;
70663;SDS011;58237;57.996;56.290;2024-01-30T08:46:43;26.92;;;10.20;;
70663;SDS011;58237;57.996;56.290;2024-01-30T08:49:08;30.38;;;10.43;;
70663;SDS011;58237;57.996;56.290;2024-01-30T08:51:34;32.50;;;9.82;;
70663;SDS011;58237;57.996;56.290;2024-01-30T08:53:59;22.75;;;9.88;;
70663;SDS011;58237;57.996;56.290;2024-01-30T08:56:25;32.28;;;11.65;;
70663;SDS011;58237;57.996;56.290;2024-01-30T08:58:51;27.75;;;10.48;;
70663;SDS011;58237;57.996;56.290;2024-01-30T09:01:16;29.08;;;11.57;;
70663;SDS011;58237;57.996;56.290;2024-01-30T09:03:42;34.05;;;12.57;;
70663;SDS011;58237;57.996;56.290;2024-01-30T09:06:10;27.45;;;9.93;;
70663;SDS011;58237;57.996;56.290;2024-01-30T09:08:36;21.10;;;8.40;;
70663;SDS011;58237;57.996;56.290;2024-01-30T09:11:07;29.58;;;11.13;;
70663;SDS011;58237;57.996;56.290;2024-01-30T09:13:33;29.15;;;8.90;;
70663;SDS011;58237;57.996;56.290;2024-01-30T09:15:58;31.88;;;12.35;;
70663;SDS011;58237;57.996;56.290;2024-01-30T09:18:24;33.42;;;11.10;;
70663;SDS011;58237;57.996;56.290;2024-01-30T09:20:49;26.05;;;10.02;;
70663;SDS011;58237;57.996;56.290;2024-01-30T09:23:15;26.77;;;9.52;;
70663;SDS011;58237;57.996;56.290;2024-01-30T09:25:42;24.60;;;8.15;;
70663;SDS011;58237;57.996;56.290;2024-01-30T09:28:08;25.45;;;8.52;;
70663;SDS011;58237;57.996;56.290;2024-01-30T09:30:34;27.15;;;10.90;;
70663;SDS011;58237;57.996;56.290;2024-01-30T09:32:59;19.73;;;8.80;;
70663;SDS011;58237;57.996;56.290;2024-01-30T09:35:25;24.02;;;9.25;;
70663;SDS011;58237;57.996;56.290;2024-01-30T09:37:50;23.77;;;8.00;;
70663;SDS011;58237;57.996;56.290;2024-01-30T09:40:17;23.42;;;8.60;;
70663;SDS011;58237;57.996;56.290;2024-01-30T09:42:46;20.80;;;7.80;;
70663;SDS011;58237;57.996;56.290;2024-01-30T09:45:12;27.65;;;9.82;;
70663;SDS011;58237;57.996;56.290;2024-01-30T09:47:42;23.73;;;6.95;;
70663;SDS011;58237;57.996;56.290;2024-01-30T09:50:09;21.85;;;7.68;;
70663;SDS011;58237;57.996;56.290;2024-01-30T09:52:35;25.42;;;7.43;;
70663;SDS011;58237;57.996;56.290;2024-01-30T09:55:00;17.75;;;7.65;;
70663;SDS011;58237;57.996;56.290;2024-01-30T09:57:26;21.17;;;6.85;;
70663;SDS011;58237;57.996;56.290;2024-01-30T09:59:52;23.52;;;8.75;;
70663;SDS011;58237;57.996;56.290;2024-01-30T10:02:19;25.15;;;8.25;;
70663;SDS011;58237;57.996;56.290;2024-01-30T10:04:46;20.23;;;7.60;;
70663;SDS011;58237;57.996;56.290;2024-01-30T10:07:12;18.63;;;6.28;;
70663;SDS011;58237;57.996;56.290;2024-01-30T10:09:39;28.90;;;10.38;;
70663;SDS011;58237;57.996;56.290;2024-01-30T10:12:05;25.42;;;8.75;;
70663;SDS011;58237;57.996;56.290;2024-01-30T10:14:31;23.42;;;7.90;;
70663;SDS011;58237;57.996;56.290;2024-01-30T10:16:57;24.90;;;7.70;;
70663;SDS011;58237;57.996;56.290;2024-01-30T10:19:22;19.40;;;7.10;;
70663;SDS011;58237;57.996;56.290;2024-01-30T10:21:48;21.83;;;8.30;;
70663;SDS011;58237;57.996;56.290;2024-01-30T10:24:14;22.20;;;8.35;;
70663;SDS011;58237;57.996;56.290;2024-01-30T10:26:39;23.42;;;8.18;;
70663;SDS011;58237;57.996;56.290;2024-01-30T10:29:05;25.13;;;9.90;;
70663;SDS011;58237;57.996;56.290;2024-01-30T10:31:30;15.88;;;6.65;;
70663;SDS011;58237;57.996;56.290;2024-01-30T10:33:56;29.77;;;9.98;;
70663;SDS011;58237;57.996;56.290;2024-01-30T10:36:24;19.33;;;6.05;;
70663;SDS011;58237;57.996;56.290;2024-01-30T10:38:53;18.55;;;6.40;;
70663;SDS011;58237;57.996;56.290;2024-01-30T10:41:22;24.00;;;8.68;;
70663;SDS011;58237;57.996;56.290;2024-01-30T10:43:54;22.33;;;8.07;;
70663;SDS011;58237;57.996;56.290;2024-01-30T10:46:24;19.45;;;7.18;;
70663;SDS011;58237;57.996;56.290;2024-01-30T10:48:58;19.35;;;7.10;;
70663;SDS011;58237;57.996;56.290;2024-01-30T10:51:26;17.50;;;6.55;;
70663;SDS011;58237;57.996;56.290;2024-01-30T10:53:51;26.63;;;8.20;;
70663;SDS011;58237;57.996;56.290;2024-01-30T10:56:18;23.92;;;9.38;;
70663;SDS011;58237;57.996;56.290;2024-01-30T10:58:45;26.55;;;9.60;;
70663;SDS011;58237;57.996;56.290;2024-01-30T11:01:11;23.52;;;8.18;;
70663;SDS011;58237;57.996;56.290;2024-01-30T11:03:38;23.70;;;7.88;;
70663;SDS011;58237;57.996;56.290;2024-01-30T11:06:03;23.63;;;8.82;;
70663;SDS011;58237;57.996;56.290;2024-01-30T11:08:31;23.00;;;8.25;;
70663;SDS011;58237;57.996;56.290;2024-01-30T11:10:57;20.17;;;7.55;;
70663;SDS011;58237;57.996;56.290;2024-01-30T11:13:29;20.30;;;7.05;;
70663;SDS011;58237;57.996;56.290;2024-01-30T11:15:55;20.42;;;7.05;;
70663;SDS011;58237;57.996;56.290;2024-01-30T11:21:09;16.00;;;6.38;;
70663;SDS011;58237;57.996;56.290;2024-01-30T11:23:39;20.50;;;8.20;;
70663;SDS011;58237;57.996;56.290;2024-01-30T11:26:04;20.80;;;8.52;;
70663;SDS011;58237;57.996;56.290;2024-01-30T11:28:33;23.50;;;8.95;;
70663;SDS011;58237;57.996;56.290;2024-01-30T11:31:05;22.35;;;8.55;;
70663;SDS011;58237;57.996;56.290;2024-01-30T11:33:32;18.17;;;6.75;;
70663;SDS011;58237;57.996;56.290;2024-01-30T11:35:59;19.00;;;6.75;;
70663;SDS011;58237;57.996;56.290;2024-01-30T11:38:25;20.30;;;7.18;;
70663;SDS011;58237;57.996;56.290;2024-01-30T11:40:51;17.17;;;6.93;;
70663;SDS011;58237;57.996;56.290;2024-01-30T11:43:16;17.42;;;6.78;;
70663;SDS011;58237;57.996;56.290;2024-01-30T11:45:44;22.83;;;6.90;;
70663;SDS011;58237;57.996;56.290;2024-01-30T11:48:11;29.88;;;8.65;;
70663;SDS011;58237;57.996;56.290;2024-01-30T11:50:37;22.05;;;7.72;;
70663;SDS011;58237;57.996;56.290;2024-01-30T11:53:03;18.27;;;6.10;;
70663;SDS011;58237;57.996;56.290;2024-01-30T11:55:29;23.63;;;9.15;;
70663;SDS011;58237;57.996;56.290;2024-01-30T11:57:57;19.58;;;7.68;;
70663;SDS011;58237;57.996;56.290;2024-01-30T12:00:22;22.27;;;7.25;;
70663;SDS011;58237;57.996;56.290;2024-01-30T12:02:54;22.70;;;8.65;;
70663;SDS011;58237;57.996;56.290;2024-01-30T12:05:23;18.23;;;7.50;;
70663;SDS011;58237;57.996;56.290;2024-01-30T12:07:52;21.10;;;7.18;;
70663;SDS011;58237;57.996;56.290;2024-01-30T12:10:18;18.60;;;7.38;;
70663;SDS011;58237;57.996;56.290;2024-01-30T12:12:47;23.40;;;8.13;;
70663;SDS011;58237;57.996;56.290;2024-01-30T12:15:14;26.08;;;8.63;;
70663;SDS011;58237;57.996;56.290;2024-01-30T12:17:40;30.45;;;10.80;;
70663;SDS011;58237;57.996;56.290;2024-01-30T12:20:17;21.85;;;8.93;;
70663;SDS011;58237;57.996;56.290;2024-01-30T12:22:43;24.00;;;9.07;;
70663;SDS011;58237;57.996;56.290;2024-01-30T12:25:09;18.70;;;7.60;;
70663;SDS011;58237;57.996;56.290;2024-01-30T12:27:36;25.95;;;8.85;;
70663;SDS011;58237;57.996;56.290;2024-01-30T12:30:04;24.02;;;9.45;;
70663;SDS011;58237;57.996;56.290;2024-01-30T12:32:39;23.63;;;8.60;;
70663;SDS011;58237;57.996;56.290;2024-01-30T12:35:14;18.10;;;6.88;;
70663;SDS011;58237;57.996;56.290;2024-01-30T12:37:40;19.75;;;7.10;;
70663;SDS011;58237;57.996;56.290;2024-01-30T12:40:08;15.02;;;6.63;;
70663;SDS011;58237;57.996;56.290;2024-01-30T12:42:34;19.85;;;7.78;;
70663;SDS011;58237;57.996;56.290;2024-01-30T12:45:01;22.30;;;7.85;;
70663;SDS011;58237;57.996;56.290;2024-01-30T12:47:29;18.70;;;6.07;;
70663;SDS011;58237;57.996;56.290;2024-01-30T12:49:54;23.10;;;8.30;;
70663;SDS011;58237;57.996;56.290;2024-01-30T12:52:20;19.33;;;7.05;;
70663;SDS011;58237;57.996;56.290;2024-01-30T12:54:47;22.35;;;7.38;;
70663;SDS011;58237;57.996;56.290;2024-01-30T12:57:12;21.42;;;7.68;;
70663;SDS011;58237;57.996;56.290;2024-01-30T12:59:38;22.23;;;8.18;;
70663;SDS011;58237;57.996;56.290;2024-01-30T13:02:04;21.98;;;7.40;;
70663;SDS011;58237;57.996;56.290;2024-01-30T13:04:30;20.20;;;6.97;;
70663;SDS011;58237;57.996;56.290;2024-01-30T13:06:55;15.77;;;6.60;;
70663;SDS011;58237;57.996;56.290;2024-01-30T13:09:21;17.85;;;5.82;;
70663;SDS011;58237;57.996;56.290;2024-01-30T13:11:47;17.30;;;5.88;;
70663;SDS011;58237;57.996;56.290;2024-01-30T13:14:12;21.38;;;8.93;;
70663;SDS011;58237;57.996;56.290;2024-01-30T13:16:38;18.17;;;7.57;;
70663;SDS011;58237;57.996;56.290;2024-01-30T13:19:04;18.98;;;6.47;;
70663;SDS011;58237;57.996;56.290;2024-01-30T13:21:29;17.30;;;6.35;;
70663;SDS011;58237;57.996;56.290;2024-01-30T13:23:55;16.38;;;7.63;;
70663;SDS011;58237;57.996;56.290;2024-01-30T13:26:20;23.58;;;8.32;;
70663;SDS011;58237;57.996;56.290;2024-01-30T13:28:46;17.05;;;6.78;;
70663;SDS011;58237;57.996;56.290;2024-01-30T13:31:12;13.52;;;5.15;;
70663;SDS011;58237;57.996;56.290;2024-01-30T13:33:38;18.15;;;7.43;;
70663;SDS011;58237;57.996;56.290;2024-01-30T13:36:04;19.83;;;7.78;;
70663;SDS011;58237;57.996;56.290;2024-01-30T13:38:29;20.30;;;7.63;;
70663;SDS011;58237;57.996;56.290;2024-01-30T13:40:55;23.10;;;9.07;;
70663;SDS011;58237;57.996;56.290;2024-01-30T13:43:20;16.65;;;7.25;;
70663;SDS011;58237;57.996;56.290;2024-01-30T13:45:46;21.15;;;7.35;;
70663;SDS011;58237;57.996;56.290;2024-01-30T13:48:11;18.67;;;7.18;;
70663;SDS011;58237;57.996;56.290;2024-01-30T13:50:37;16.80;;;6.60;;
70663;SDS011;58237;57.996;56.290;2024-01-30T13:53:02;14.63;;;5.88;;
70663;SDS011;58237;57.996;56.290;2024-01-30T13:55:29;17.50;;;6.68;;
70663;SDS011;58237;57.996;56.290;2024-01-30T13:57:55;21.70;;;8.80;;
70663;SDS011;58237;57.996;56.290;2024-01-30T14:00:21;26.58;;;8.55;;
70663;SDS011;58237;57.996;56.290;2024-01-30T14:02:47;22.65;;;8.05;;
70663;SDS011;58237;57.996;56.290;2024-01-30T14:05:13;20.27;;;8.75;;
70663;SDS011;58237;57.996;56.290;2024-01-30T14:07:39;29.10;;;9.90;;
70663;SDS011;58237;57.996;56.290;2024-01-30T14:10:05;23.63;;;8.45;;
70663;SDS011;58237;57.996;56.290;2024-01-30T14:12:31;31.02;;;10.77;;